Doniphan, NE

7:30 AM CDT on August 05, 2015 (GMT -0500)
Riverside/Barr | | Change Station
CLOSE
Current Station
Personal Weather Station
Location: Grand Island, NE
Elevation: 1856 ft
Nearby Weather Stations

Elev 1856 ft 40.90 °N, 98.35 °W | Updated 10 seconds ago

Overcast
Overcast
64.7 °F
Feels Like 64.7 °F
N
0.0
Wind Variable Wind from NW
Gusts 0.0 mph

Today
High -- | Low -- °F
--% Chance of Precip.
Yesterday
High -- | Low -- °F
Precip. -- in
6:33 AM 8:44 PM
Waning Gibbous, 67% visible
Pressure 29.99 in
Visibility 5.0 miles
Clouds Mostly Cloudy 4200 ft
Overcast 5000 ft
Dew Point 63 °F
Humidity 94%
Rainfall 0.00 in
Snow Depth Not available.
UV 0.0 out of 12
Pollen .20 out of 12
Air Quality Not available.
Flu Activity Not available.
METAR KHSI 051153Z AUTO 04004KT 5SM BR BKN042 OVC050 19/18 A2999 RMK AO2 SLPNO 60004 70065 T01890178 10189 20178 53002 $

More Conditions Fewer Conditions

Pressure 29.99 in
Visibility 5.0 miles
Clouds Mostly Cloudy 4200 ft
Overcast 5000 ft
Dew Point 63 °F
Humidity 94%
Rainfall 0.00 in
Snow Depth Not available.
UV 0.0 out of 12
Pollen .20 out of 12
Air Quality Not available.
Flu Activity Not available.
METAR KHSI 051153Z AUTO 04004KT 5SM BR BKN042 OVC050 19/18 A2999 RMK AO2 SLPNO 60004 70065 T01890178 10189 20178 53002 $

More Conditions Fewer Conditions

10-Day Weather Forecast

×

Almanac

Astronomy

Aug. 05, 2015 Rise Set
Actual Time
Civil Twilight
Nautical Twilight
Astronomical Twilight
Moon
Length of Visible Light
Length of Day
Tomorrow will be .
, % of the Moon is Illuminated

Today's Extremes

State Highs State Lows

Community

WunderPhotos

Upload Photos

1,844,171 photos uploaded!

WunderBlogs® & News

Nearby

Air Quality

  Air Quality AQ Index Pollutant
Not available.

Snow Depth

Station Depth Elevation

Earthquake Activity

City Distance Mag. Time & Date
Minimum magnitude displayed is 2.5.

Coastal Water Temperatures

Place Temperature

Stations

Nearby Weather Stations

Station Location Temp. Windchill Dew Point Humidity Wind Precip. Elev Updated Type